UMB1136 LIRZ-LGSK
Flight info
| Callsign | UMB1136 |
|---|---|
| Flight time | 1h 42m |
| Altitude | 35000 |
| Route | KATAR DCT ETRIN DCT AIOSA DCT EBELA DCT PINDO DCT AGH DCT EVIKO |
| Aircraft | A321/M-SDE3FGHIRWY/LB1 |
Departure
| Time | 2026-04-28 13:08 |
|---|---|
| Airport | Perugia San Francesco d'Assisi – Umbria International Airport (LIRZ) |
Arrival
| Time | 2026-04-28 14:50 |
|---|---|
| Airport | Skiathos Island National Airport (LGSK) |
| Time | Latitude | Longitude | Altitude | Speed | Heading |
|---|---|---|---|---|---|
| 2026-04-28 12:52 | 43.09465 | 12.50391 | 688 ft | 0 kts | 289° |
| 2026-04-28 13:01 | 43.09471 | 12.50389 | 687 ft | 1 kts | 345° |
| 2026-04-28 13:01 | 43.09476 | 12.50403 | 682 ft | 3 kts | 67° |
| 2026-04-28 13:01 | 43.09496 | 12.50446 | 679 ft | 9 kts | 28° |
| 2026-04-28 13:01 | 43.09557 | 12.50510 | 685 ft | 12 kts | 63° |
| 2026-04-28 13:02 | 43.09587 | 12.50604 | 684 ft | 11 kts | 66° |
| 2026-04-28 13:02 | 43.09620 | 12.50703 | 683 ft | 12 kts | 65° |
| 2026-04-28 13:02 | 43.09656 | 12.50813 | 685 ft | 12 kts | 66° |
| 2026-04-28 13:02 | 43.09692 | 12.50922 | 686 ft | 15 kts | 66° |
| 2026-04-28 13:03 | 43.09747 | 12.51085 | 689 ft | 22 kts | 66° |
| 2026-04-28 13:03 | 43.09853 | 12.51182 | 686 ft | 18 kts | 14° |
| 2026-04-28 13:03 | 43.09967 | 12.51221 | 692 ft | 16 kts | 15° |
| 2026-04-28 13:03 | 43.10083 | 12.51262 | 693 ft | 20 kts | 14° |
| 2026-04-28 13:04 | 43.10244 | 12.51318 | 697 ft | 27 kts | 14° |
| 2026-04-28 13:04 | 43.10423 | 12.51381 | 697 ft | 26 kts | 14° |
| 2026-04-28 13:04 | 43.10587 | 12.51437 | 701 ft | 23 kts | 14° |
| 2026-04-28 13:04 | 43.10737 | 12.51490 | 702 ft | 21 kts | 15° |
| 2026-04-28 13:05 | 43.10779 | 12.51579 | 703 ft | 0 kts | 98° |
| 2026-04-28 13:05 | 43.10779 | 12.51581 | 703 ft | 2 kts | 98° |
| 2026-04-28 13:06 | 43.10774 | 12.51618 | 703 ft | 6 kts | 102° |
| 2026-04-28 13:06 | 43.10764 | 12.51666 | 700 ft | 4 kts | 106° |
| 2026-04-28 13:06 | 43.10759 | 12.51687 | 704 ft | 1 kts | 106° |
| 2026-04-28 13:06 | 43.10753 | 12.51703 | 697 ft | 4 kts | 124° |
| 2026-04-28 13:07 | 43.10714 | 12.51710 | 697 ft | 9 kts | 186° |
| 2026-04-28 13:07 | 43.10627 | 12.51682 | 703 ft | 17 kts | 194° |
| 2026-04-28 13:07 | 43.10379 | 12.51595 | 702 ft | 70 kts | 194° |
| 2026-04-28 13:07 | 43.09681 | 12.51354 | 688 ft | 134 kts | 194° |
| 2026-04-28 13:08 | 43.08646 | 12.50994 | 947 ft | 159 kts | 196° |
| 2026-04-28 13:08 | 43.07577 | 12.50625 | 1682 ft | 160 kts | 195° |
| 2026-04-28 13:08 | 43.06488 | 12.50248 | 2355 ft | 163 kts | 196° |
| 2026-04-28 13:08 | 43.05365 | 12.49863 | 2763 ft | 175 kts | 195° |
| 2026-04-28 13:09 | 43.04139 | 12.49298 | 2952 ft | 198 kts | 207° |
| 2026-04-28 13:09 | 43.02886 | 12.48339 | 3262 ft | 214 kts | 211° |
| 2026-04-28 13:09 | 43.01572 | 12.47319 | 3807 ft | 220 kts | 211° |
| 2026-04-28 13:09 | 43.00240 | 12.46295 | 4600 ft | 219 kts | 211° |
| 2026-04-28 13:10 | 42.98904 | 12.45271 | 5182 ft | 221 kts | 210° |
| 2026-04-28 13:10 | 42.97558 | 12.44235 | 5789 ft | 224 kts | 208° |
| 2026-04-28 13:10 | 42.96233 | 12.43206 | 6547 ft | 209 kts | 208° |
| 2026-04-28 13:10 | 42.94935 | 12.42205 | 7126 ft | 221 kts | 207° |
| 2026-04-28 13:11 | 42.93568 | 12.41164 | 7645 ft | 227 kts | 208° |
| 2026-04-28 13:11 | 42.92178 | 12.40103 | 8234 ft | 231 kts | 208° |
| 2026-04-28 13:11 | 42.90770 | 12.39025 | 8855 ft | 233 kts | 208° |
| 2026-04-28 13:11 | 42.89261 | 12.38261 | 9414 ft | 234 kts | 184° |
| 2026-04-28 13:12 | 42.87642 | 12.38583 | 9861 ft | 242 kts | 155° |
| 2026-04-28 13:12 | 42.86318 | 12.40034 | 10241 ft | 255 kts | 125° |
| 2026-04-28 13:12 | 42.85716 | 12.42342 | 10612 ft | 268 kts | 95° |
| 2026-04-28 13:12 | 42.85679 | 12.44918 | 11112 ft | 274 kts | 92° |
| 2026-04-28 13:13 | 42.85691 | 12.47531 | 11676 ft | 278 kts | 86° |
| 2026-04-28 13:13 | 42.86196 | 12.50088 | 12207 ft | 284 kts | 62° |
| 2026-04-28 13:13 | 42.87422 | 12.52200 | 12743 ft | 288 kts | 38° |
| 2026-04-28 13:13 | 42.89093 | 12.53726 | 13317 ft | 290 kts | 31° |
| 2026-04-28 13:14 | 42.90808 | 12.55204 | 13915 ft | 293 kts | 31° |
| 2026-04-28 13:14 | 42.92535 | 12.56703 | 14446 ft | 295 kts | 31° |
| 2026-04-28 13:14 | 42.94274 | 12.58218 | 14966 ft | 298 kts | 31° |
| 2026-04-28 13:14 | 42.96024 | 12.59747 | 15490 ft | 300 kts | 31° |
| 2026-04-28 13:15 | 42.97783 | 12.61293 | 15994 ft | 302 kts | 31° |
| 2026-04-28 13:15 | 42.99532 | 12.62831 | 16489 ft | 304 kts | 31° |
| 2026-04-28 13:15 | 43.01266 | 12.64572 | 16981 ft | 308 kts | 43° |
| 2026-04-28 13:15 | 43.02623 | 12.66856 | 17445 ft | 313 kts | 58° |
| 2026-04-28 13:16 | 43.03495 | 12.69557 | 17923 ft | 318 kts | 74° |
| 2026-04-28 13:16 | 43.03825 | 12.72550 | 18361 ft | 321 kts | 90° |
| 2026-04-28 13:16 | 43.03549 | 12.75584 | 18746 ft | 323 kts | 106° |
| 2026-04-28 13:16 | 43.02926 | 12.78546 | 19151 ft | 326 kts | 107° |
| 2026-04-28 13:17 | 43.02295 | 12.81532 | 19572 ft | 328 kts | 107° |
| 2026-04-28 13:17 | 43.01660 | 12.84537 | 19993 ft | 330 kts | 107° |
| 2026-04-28 13:17 | 43.01022 | 12.87553 | 20399 ft | 333 kts | 106° |
| 2026-04-28 13:17 | 43.00370 | 12.90653 | 20531 ft | 345 kts | 106° |
| 2026-04-28 13:18 | 42.99696 | 12.93867 | 20664 ft | 358 kts | 106° |
| 2026-04-28 13:18 | 42.98999 | 12.97195 | 20794 ft | 370 kts | 106° |
| 2026-04-28 13:18 | 42.98278 | 13.00629 | 20919 ft | 382 kts | 106° |
| 2026-04-28 13:18 | 42.97533 | 13.04167 | 21047 ft | 393 kts | 106° |
| 2026-04-28 13:19 | 42.96766 | 13.07798 | 21178 ft | 403 kts | 106° |
| 2026-04-28 13:19 | 42.95980 | 13.11511 | 21301 ft | 411 kts | 106° |
| 2026-04-28 13:19 | 42.95176 | 13.15294 | 21437 ft | 419 kts | 106° |
| 2026-04-28 13:19 | 42.94355 | 13.19142 | 21586 ft | 425 kts | 106° |
| 2026-04-28 13:20 | 42.93533 | 13.22984 | 21865 ft | 429 kts | 106° |
| 2026-04-28 13:20 | 42.92694 | 13.26907 | 22186 ft | 431 kts | 106° |
| 2026-04-28 13:20 | 42.91852 | 13.30836 | 22485 ft | 433 kts | 106° |
| 2026-04-28 13:20 | 42.91002 | 13.34794 | 22805 ft | 435 kts | 106° |
| 2026-04-28 13:21 | 42.90150 | 13.38764 | 23152 ft | 437 kts | 106° |
| 2026-04-28 13:21 | 42.89294 | 13.42752 | 23489 ft | 439 kts | 106° |
| 2026-04-28 13:21 | 42.88429 | 13.46758 | 23794 ft | 441 kts | 106° |
| 2026-04-28 13:21 | 42.87559 | 13.50782 | 24080 ft | 443 kts | 106° |
| 2026-04-28 13:22 | 42.86688 | 13.54815 | 24369 ft | 445 kts | 106° |
| 2026-04-28 13:22 | 42.85813 | 13.58866 | 24658 ft | 446 kts | 106° |
| 2026-04-28 13:22 | 42.84929 | 13.62928 | 24944 ft | 448 kts | 106° |
| 2026-04-28 13:22 | 42.84039 | 13.67003 | 25221 ft | 450 kts | 106° |
| 2026-04-28 13:23 | 42.83156 | 13.71039 | 25494 ft | 452 kts | 106° |
| 2026-04-28 13:23 | 42.82256 | 13.75149 | 25762 ft | 454 kts | 106° |
| 2026-04-28 13:23 | 42.81354 | 13.79270 | 26029 ft | 455 kts | 106° |
| 2026-04-28 13:23 | 42.80448 | 13.83409 | 26287 ft | 457 kts | 106° |
| 2026-04-28 13:24 | 42.79535 | 13.87565 | 26554 ft | 459 kts | 106° |
| 2026-04-28 13:24 | 42.78617 | 13.91730 | 26816 ft | 460 kts | 106° |
| 2026-04-28 13:24 | 42.77693 | 13.95911 | 27073 ft | 462 kts | 106° |
| 2026-04-28 13:24 | 42.76762 | 14.00117 | 27324 ft | 464 kts | 107° |
| 2026-04-28 13:25 | 42.75829 | 14.04330 | 27575 ft | 466 kts | 106° |
| 2026-04-28 13:25 | 42.74892 | 14.08558 | 27821 ft | 467 kts | 107° |
| 2026-04-28 13:25 | 42.73951 | 14.12789 | 28055 ft | 469 kts | 107° |
| 2026-04-28 13:25 | 42.73000 | 14.17050 | 28288 ft | 471 kts | 107° |
| 2026-04-28 13:26 | 42.72045 | 14.21312 | 28516 ft | 472 kts | 107° |
| 2026-04-28 13:26 | 42.71084 | 14.25593 | 28738 ft | 474 kts | 107° |
| 2026-04-28 13:26 | 42.70120 | 14.29885 | 28949 ft | 475 kts | 107° |
| 2026-04-28 13:26 | 42.69155 | 14.34183 | 29148 ft | 477 kts | 107° |
| 2026-04-28 13:27 | 42.68187 | 14.38505 | 29334 ft | 478 kts | 107° |
| 2026-04-28 13:27 | 42.67217 | 14.42830 | 29511 ft | 480 kts | 107° |
| 2026-04-28 13:27 | 42.66254 | 14.47113 | 29688 ft | 481 kts | 107° |
| 2026-04-28 13:27 | 42.65270 | 14.51458 | 29877 ft | 481 kts | 107° |
| 2026-04-28 13:28 | 42.64282 | 14.55796 | 30114 ft | 481 kts | 107° |
| 2026-04-28 13:28 | 42.63295 | 14.60133 | 30320 ft | 480 kts | 107° |
| 2026-04-28 13:28 | 42.62309 | 14.64464 | 30521 ft | 480 kts | 107° |
| 2026-04-28 13:28 | 42.61322 | 14.68794 | 30709 ft | 480 kts | 107° |
| 2026-04-28 13:29 | 42.60327 | 14.73118 | 30920 ft | 479 kts | 107° |
| 2026-04-28 13:29 | 42.59284 | 14.77417 | 31122 ft | 479 kts | 108° |
| 2026-04-28 13:29 | 42.58197 | 14.81688 | 31321 ft | 479 kts | 109° |
| 2026-04-28 13:29 | 42.57083 | 14.85950 | 31524 ft | 479 kts | 109° |
| 2026-04-28 13:30 | 42.55964 | 14.90199 | 31729 ft | 479 kts | 109° |
| 2026-04-28 13:30 | 42.54847 | 14.94453 | 31929 ft | 479 kts | 109° |
| 2026-04-28 13:30 | 42.53738 | 14.98715 | 32132 ft | 478 kts | 109° |
| 2026-04-28 13:30 | 42.52642 | 15.02971 | 32337 ft | 478 kts | 109° |
| 2026-04-28 13:31 | 42.50461 | 15.11475 | 32753 ft | 477 kts | 109° |
| 2026-04-28 13:31 | 42.49384 | 15.15668 | 32954 ft | 477 kts | 109° |
| 2026-04-28 13:31 | 42.48292 | 15.19900 | 33150 ft | 477 kts | 109° |
| 2026-04-28 13:32 | 42.47191 | 15.24139 | 33368 ft | 476 kts | 109° |
| 2026-04-28 13:32 | 42.46086 | 15.28375 | 33555 ft | 476 kts | 109° |
| 2026-04-28 13:32 | 42.44980 | 15.32598 | 33742 ft | 476 kts | 109° |
| 2026-04-28 13:32 | 42.43873 | 15.36819 | 33938 ft | 476 kts | 109° |
| 2026-04-28 13:33 | 42.42766 | 15.41039 | 34109 ft | 476 kts | 109° |
| 2026-04-28 13:33 | 42.41658 | 15.45257 | 34266 ft | 476 kts | 109° |
| 2026-04-28 13:33 | 42.40551 | 15.49478 | 34430 ft | 476 kts | 109° |
| 2026-04-28 13:33 | 42.39446 | 15.53696 | 34583 ft | 476 kts | 109° |
| 2026-04-28 13:34 | 42.38340 | 15.57910 | 34731 ft | 475 kts | 109° |
| 2026-04-28 13:34 | 42.37234 | 15.62123 | 34881 ft | 476 kts | 109° |
| 2026-04-28 13:34 | 42.36124 | 15.66337 | 35026 ft | 475 kts | 109° |
| 2026-04-28 13:34 | 42.35015 | 15.70538 | 35075 ft | 474 kts | 109° |
| 2026-04-28 13:35 | 42.32792 | 15.78910 | 35062 ft | 473 kts | 109° |
| 2026-04-28 13:35 | 42.30576 | 15.87206 | 35071 ft | 472 kts | 109° |
| 2026-04-28 13:36 | 42.28350 | 15.95548 | 35063 ft | 472 kts | 109° |
| 2026-04-28 13:36 | 42.26119 | 16.03886 | 35076 ft | 472 kts | 109° |
| 2026-04-28 13:37 | 42.23878 | 16.12217 | 35064 ft | 472 kts | 109° |
| 2026-04-28 13:37 | 42.21625 | 16.20540 | 35079 ft | 472 kts | 109° |
| 2026-04-28 13:38 | 42.19364 | 16.28853 | 35082 ft | 472 kts | 109° |
| 2026-04-28 13:38 | 42.17109 | 16.37176 | 35083 ft | 473 kts | 109° |
| 2026-04-28 13:39 | 42.14851 | 16.45496 | 35088 ft | 473 kts | 109° |
| 2026-04-28 13:39 | 42.12577 | 16.53801 | 35087 ft | 473 kts | 110° |
| 2026-04-28 13:40 | 42.10307 | 16.62045 | 35084 ft | 472 kts | 110° |
| 2026-04-28 13:40 | 42.08024 | 16.70335 | 35088 ft | 472 kts | 110° |
| 2026-04-28 13:41 | 42.06107 | 16.77283 | 35090 ft | 472 kts | 110° |
| 2026-04-28 13:41 | 42.03816 | 16.85563 | 35092 ft | 472 kts | 110° |
| 2026-04-28 13:42 | 42.01516 | 16.93829 | 35081 ft | 472 kts | 110° |
| 2026-04-28 13:42 | 41.99231 | 17.02036 | 35080 ft | 472 kts | 110° |
| 2026-04-28 13:43 | 41.96926 | 17.10288 | 35077 ft | 471 kts | 110° |
| 2026-04-28 13:43 | 41.94613 | 17.18524 | 35092 ft | 471 kts | 110° |
| 2026-04-28 13:44 | 41.92065 | 17.26637 | 35083 ft | 472 kts | 120° |
| 2026-04-28 13:44 | 41.88773 | 17.34243 | 35087 ft | 471 kts | 120° |
| 2026-04-28 13:45 | 41.85479 | 17.41860 | 35077 ft | 471 kts | 120° |
| 2026-04-28 13:45 | 41.82186 | 17.49469 | 35084 ft | 472 kts | 120° |
| 2026-04-28 13:46 | 41.78888 | 17.57073 | 35082 ft | 472 kts | 120° |
| 2026-04-28 13:46 | 41.75601 | 17.64607 | 35092 ft | 471 kts | 120° |
| 2026-04-28 13:47 | 41.72286 | 17.72185 | 35089 ft | 471 kts | 120° |
| 2026-04-28 13:47 | 41.68970 | 17.79758 | 35083 ft | 471 kts | 120° |
| 2026-04-28 13:48 | 41.65653 | 17.87319 | 35089 ft | 471 kts | 120° |
| 2026-04-28 13:48 | 41.62329 | 17.94865 | 35095 ft | 471 kts | 120° |
| 2026-04-28 13:49 | 41.59007 | 18.02399 | 35091 ft | 471 kts | 120° |
| 2026-04-28 13:49 | 41.55677 | 18.09921 | 35092 ft | 471 kts | 120° |
| 2026-04-28 13:50 | 41.52339 | 18.17440 | 35088 ft | 471 kts | 120° |
| 2026-04-28 13:50 | 41.49005 | 18.24960 | 35093 ft | 471 kts | 120° |
| 2026-04-28 13:51 | 41.45682 | 18.32417 | 35103 ft | 471 kts | 121° |
| 2026-04-28 13:51 | 41.42333 | 18.39909 | 35084 ft | 471 kts | 121° |
| 2026-04-28 13:52 | 41.38979 | 18.47395 | 35103 ft | 471 kts | 121° |
| 2026-04-28 13:52 | 41.35624 | 18.54869 | 35103 ft | 470 kts | 121° |
| 2026-04-28 13:53 | 41.32259 | 18.62328 | 35102 ft | 470 kts | 121° |
| 2026-04-28 13:53 | 41.28900 | 18.69780 | 35088 ft | 469 kts | 121° |
| 2026-04-28 13:54 | 41.25532 | 18.77220 | 35104 ft | 469 kts | 121° |
| 2026-04-28 13:54 | 41.22162 | 18.84648 | 35102 ft | 469 kts | 121° |
| 2026-04-28 13:55 | 41.18906 | 18.92152 | 35093 ft | 468 kts | 114° |
| 2026-04-28 13:55 | 41.16267 | 19.00050 | 35095 ft | 468 kts | 113° |
| 2026-04-28 13:56 | 41.13625 | 19.07878 | 35086 ft | 468 kts | 114° |
| 2026-04-28 13:56 | 41.10955 | 19.15741 | 35093 ft | 468 kts | 114° |
| 2026-04-28 13:57 | 41.08284 | 19.23606 | 35078 ft | 467 kts | 114° |
| 2026-04-28 13:57 | 41.05617 | 19.31453 | 35077 ft | 467 kts | 114° |
| 2026-04-28 13:58 | 41.02941 | 19.39301 | 35078 ft | 467 kts | 114° |
| 2026-04-28 13:58 | 41.00259 | 19.47139 | 35074 ft | 467 kts | 114° |
| 2026-04-28 13:59 | 40.97573 | 19.54968 | 35076 ft | 467 kts | 114° |
| 2026-04-28 13:59 | 40.94885 | 19.62801 | 35080 ft | 467 kts | 114° |
| 2026-04-28 14:00 | 40.92188 | 19.70626 | 35071 ft | 467 kts | 114° |
| 2026-04-28 14:00 | 40.90857 | 19.74471 | 34834 ft | 466 kts | 115° |
| 2026-04-28 14:00 | 40.89522 | 19.78324 | 35000 ft | 457 kts | 115° |
| 2026-04-28 14:01 | 40.86889 | 19.85913 | 35009 ft | 453 kts | 115° |
| 2026-04-28 14:01 | 40.84267 | 19.93457 | 35013 ft | 452 kts | 115° |
| 2026-04-28 14:02 | 40.81642 | 20.00995 | 35012 ft | 452 kts | 115° |
| 2026-04-28 14:02 | 40.79010 | 20.08532 | 35005 ft | 452 kts | 115° |
| 2026-04-28 14:03 | 40.76377 | 20.16058 | 35011 ft | 452 kts | 115° |
| 2026-04-28 14:03 | 40.73738 | 20.23583 | 35011 ft | 452 kts | 115° |
| 2026-04-28 14:04 | 40.71089 | 20.31105 | 35014 ft | 452 kts | 115° |
| 2026-04-28 14:04 | 40.68437 | 20.38618 | 35014 ft | 452 kts | 115° |
| 2026-04-28 14:05 | 40.65781 | 20.46133 | 35018 ft | 452 kts | 115° |
| 2026-04-28 14:05 | 40.63112 | 20.53634 | 35018 ft | 452 kts | 115° |
| 2026-04-28 14:06 | 40.60457 | 20.61071 | 35020 ft | 452 kts | 115° |
| 2026-04-28 14:06 | 40.57765 | 20.68565 | 35017 ft | 452 kts | 118° |
| 2026-04-28 14:07 | 40.54639 | 20.75743 | 35015 ft | 452 kts | 121° |
| 2026-04-28 14:07 | 40.51428 | 20.82852 | 35017 ft | 452 kts | 121° |
| 2026-04-28 14:08 | 40.48162 | 20.89915 | 35019 ft | 452 kts | 122° |
| 2026-04-28 14:08 | 40.44891 | 20.96987 | 35017 ft | 452 kts | 121° |
| 2026-04-28 14:09 | 40.41669 | 21.04009 | 35020 ft | 452 kts | 121° |
| 2026-04-28 14:09 | 40.38418 | 21.11072 | 35018 ft | 452 kts | 121° |
| 2026-04-28 14:10 | 40.35163 | 21.18128 | 35020 ft | 452 kts | 121° |
| 2026-04-28 14:10 | 40.31906 | 21.25174 | 35021 ft | 452 kts | 121° |
| 2026-04-28 14:11 | 40.28635 | 21.32218 | 35018 ft | 452 kts | 121° |
| 2026-04-28 14:11 | 40.25366 | 21.39244 | 35021 ft | 452 kts | 122° |
| 2026-04-28 14:12 | 40.22085 | 21.46260 | 35021 ft | 452 kts | 122° |
| 2026-04-28 14:12 | 40.18798 | 21.53278 | 35020 ft | 452 kts | 122° |
| 2026-04-28 14:13 | 40.15538 | 21.60245 | 35019 ft | 452 kts | 122° |
| 2026-04-28 14:13 | 40.13889 | 21.63765 | 35216 ft | 458 kts | 120° |
| 2026-04-28 14:13 | 40.12214 | 21.67341 | 35083 ft | 463 kts | 120° |
| 2026-04-28 14:14 | 40.08833 | 21.74544 | 35098 ft | 467 kts | 120° |
| 2026-04-28 14:14 | 40.07124 | 21.78174 | 34467 ft | 473 kts | 120° |
| 2026-04-28 14:14 | 40.05382 | 21.81866 | 33278 ft | 482 kts | 120° |
| 2026-04-28 14:15 | 40.03616 | 21.85594 | 32526 ft | 480 kts | 121° |
| 2026-04-28 14:15 | 40.01872 | 21.89265 | 31963 ft | 474 kts | 121° |
| 2026-04-28 14:15 | 40.00144 | 21.92904 | 31379 ft | 470 kts | 121° |
| 2026-04-28 14:15 | 39.98433 | 21.96510 | 30800 ft | 466 kts | 121° |
| 2026-04-28 14:16 | 39.96736 | 22.00091 | 30241 ft | 463 kts | 121° |
| 2026-04-28 14:16 | 39.95052 | 22.03646 | 29607 ft | 459 kts | 121° |
| 2026-04-28 14:16 | 39.93381 | 22.07162 | 29073 ft | 453 kts | 121° |
| 2026-04-28 14:16 | 39.91728 | 22.10631 | 28517 ft | 448 kts | 121° |
| 2026-04-28 14:17 | 39.90091 | 22.14061 | 27988 ft | 443 kts | 121° |
| 2026-04-28 14:17 | 39.88470 | 22.17459 | 27445 ft | 438 kts | 121° |
| 2026-04-28 14:17 | 39.86871 | 22.20809 | 26928 ft | 434 kts | 121° |
| 2026-04-28 14:17 | 39.85287 | 22.24122 | 26422 ft | 429 kts | 121° |
| 2026-04-28 14:18 | 39.83720 | 22.27399 | 25930 ft | 424 kts | 121° |
| 2026-04-28 14:18 | 39.82172 | 22.30634 | 25448 ft | 418 kts | 121° |
| 2026-04-28 14:18 | 39.80641 | 22.33827 | 24973 ft | 413 kts | 121° |
| 2026-04-28 14:18 | 39.79129 | 22.36972 | 24527 ft | 407 kts | 121° |
| 2026-04-28 14:19 | 39.77638 | 22.40070 | 24069 ft | 402 kts | 121° |
| 2026-04-28 14:19 | 39.76162 | 22.43134 | 23596 ft | 398 kts | 121° |
| 2026-04-28 14:19 | 39.74723 | 22.46123 | 23114 ft | 393 kts | 121° |
| 2026-04-28 14:19 | 39.73283 | 22.49112 | 22674 ft | 387 kts | 121° |
| 2026-04-28 14:20 | 39.71862 | 22.52060 | 22227 ft | 382 kts | 121° |
| 2026-04-28 14:20 | 39.70457 | 22.54971 | 21794 ft | 378 kts | 121° |
| 2026-04-28 14:20 | 39.69067 | 22.57845 | 21355 ft | 374 kts | 121° |
| 2026-04-28 14:20 | 39.67690 | 22.60691 | 20912 ft | 371 kts | 121° |
| 2026-04-28 14:21 | 39.66326 | 22.63510 | 20473 ft | 368 kts | 121° |
| 2026-04-28 14:21 | 39.64968 | 22.66310 | 20031 ft | 365 kts | 121° |
| 2026-04-28 14:21 | 39.63621 | 22.69084 | 19601 ft | 363 kts | 121° |
| 2026-04-28 14:21 | 39.62281 | 22.71843 | 19166 ft | 360 kts | 121° |
| 2026-04-28 14:22 | 39.60949 | 22.74588 | 18728 ft | 359 kts | 121° |
| 2026-04-28 14:22 | 39.59621 | 22.77324 | 18293 ft | 357 kts | 121° |
| 2026-04-28 14:22 | 39.58303 | 22.80032 | 17838 ft | 354 kts | 121° |
| 2026-04-28 14:22 | 39.56995 | 22.82716 | 17417 ft | 350 kts | 121° |
| 2026-04-28 14:23 | 39.55699 | 22.85369 | 16999 ft | 347 kts | 121° |
| 2026-04-28 14:23 | 39.54418 | 22.87992 | 16594 ft | 343 kts | 121° |
| 2026-04-28 14:23 | 39.53146 | 22.90594 | 16189 ft | 340 kts | 121° |
| 2026-04-28 14:23 | 39.51888 | 22.93167 | 15793 ft | 337 kts | 122° |
| 2026-04-28 14:24 | 39.50637 | 22.95727 | 15389 ft | 335 kts | 122° |
| 2026-04-28 14:24 | 39.49395 | 22.98260 | 15001 ft | 333 kts | 122° |
| 2026-04-28 14:24 | 39.48157 | 23.00782 | 14610 ft | 330 kts | 122° |
| 2026-04-28 14:24 | 39.46946 | 23.03255 | 14218 ft | 328 kts | 122° |
| 2026-04-28 14:25 | 39.45725 | 23.05748 | 13812 ft | 327 kts | 122° |
| 2026-04-28 14:25 | 39.44511 | 23.08223 | 13398 ft | 324 kts | 122° |
| 2026-04-28 14:25 | 39.43304 | 23.10675 | 13105 ft | 327 kts | 122° |
| 2026-04-28 14:25 | 39.42057 | 23.13207 | 13098 ft | 338 kts | 122° |
| 2026-04-28 14:26 | 39.40789 | 23.15780 | 12917 ft | 341 kts | 122° |
| 2026-04-28 14:26 | 39.39495 | 23.18413 | 12007 ft | 352 kts | 121° |
| 2026-04-28 14:26 | 39.38175 | 23.21090 | 11396 ft | 354 kts | 121° |
| 2026-04-28 14:26 | 39.36854 | 23.23763 | 10922 ft | 350 kts | 121° |
| 2026-04-28 14:27 | 39.35544 | 23.26407 | 10409 ft | 348 kts | 121° |
| 2026-04-28 14:27 | 39.34261 | 23.28999 | 10252 ft | 334 kts | 121° |
| 2026-04-28 14:27 | 39.33058 | 23.31430 | 10029 ft | 310 kts | 121° |
| 2026-04-28 14:27 | 39.31920 | 23.33728 | 9451 ft | 298 kts | 121° |
| 2026-04-28 14:28 | 39.30815 | 23.35958 | 9305 ft | 295 kts | 121° |
| 2026-04-28 14:28 | 39.29701 | 23.38206 | 9078 ft | 296 kts | 121° |
| 2026-04-28 14:28 | 39.28598 | 23.40429 | 8780 ft | 290 kts | 121° |
| 2026-04-28 14:28 | 39.27531 | 23.42576 | 8648 ft | 278 kts | 121° |
| 2026-04-28 14:29 | 39.26506 | 23.44633 | 8513 ft | 265 kts | 121° |
| 2026-04-28 14:29 | 39.25543 | 23.46564 | 8389 ft | 254 kts | 121° |
| 2026-04-28 14:29 | 39.24604 | 23.48448 | 8189 ft | 247 kts | 121° |
| 2026-04-28 14:29 | 39.23682 | 23.50301 | 7892 ft | 244 kts | 121° |
| 2026-04-28 14:30 | 39.22754 | 23.52171 | 7398 ft | 250 kts | 121° |
| 2026-04-28 14:30 | 39.21816 | 23.54061 | 7040 ft | 250 kts | 121° |
| 2026-04-28 14:30 | 39.20878 | 23.55943 | 6712 ft | 249 kts | 121° |
| 2026-04-28 14:30 | 39.19945 | 23.57810 | 6401 ft | 247 kts | 121° |
| 2026-04-28 14:31 | 39.19018 | 23.59666 | 6057 ft | 245 kts | 121° |
| 2026-04-28 14:31 | 39.18092 | 23.61511 | 5851 ft | 243 kts | 123° |
| 2026-04-28 14:31 | 39.16890 | 23.62970 | 5710 ft | 238 kts | 152° |
| 2026-04-28 14:31 | 39.15392 | 23.63851 | 5428 ft | 236 kts | 155° |
| 2026-04-28 14:32 | 39.13885 | 23.64694 | 5211 ft | 235 kts | 155° |
| 2026-04-28 14:32 | 39.12936 | 23.65349 | 5056 ft | 232 kts | 141° |
| 2026-04-28 14:32 | 39.11904 | 23.66907 | 4779 ft | 228 kts | 113° |
| 2026-04-28 14:32 | 39.11535 | 23.68853 | 4437 ft | 223 kts | 86° |
| 2026-04-28 14:33 | 39.11870 | 23.70764 | 4154 ft | 218 kts | 60° |
| 2026-04-28 14:33 | 39.12790 | 23.72277 | 4095 ft | 216 kts | 37° |
| 2026-04-28 14:33 | 39.14113 | 23.73161 | 4091 ft | 216 kts | 13° |
| 2026-04-28 14:33 | 39.15606 | 23.73242 | 4094 ft | 217 kts | 348° |
| 2026-04-28 14:34 | 39.17994 | 23.71016 | 4092 ft | 222 kts | 298° |
| 2026-04-28 14:34 | 39.18408 | 23.69103 | 4038 ft | 225 kts | 272° |
| 2026-04-28 14:34 | 39.18375 | 23.67086 | 4021 ft | 226 kts | 269° |
| 2026-04-28 14:35 | 39.18281 | 23.65061 | 4010 ft | 226 kts | 268° |
| 2026-04-28 14:35 | 39.18173 | 23.63039 | 4013 ft | 226 kts | 268° |
| 2026-04-28 14:35 | 39.18023 | 23.61023 | 4002 ft | 226 kts | 257° |
| 2026-04-28 14:35 | 39.17296 | 23.59237 | 3997 ft | 229 kts | 225° |
| 2026-04-28 14:36 | 39.15945 | 23.58174 | 4011 ft | 231 kts | 194° |
| 2026-04-28 14:36 | 39.14357 | 23.58164 | 4007 ft | 230 kts | 161° |
| 2026-04-28 14:36 | 39.13009 | 23.59210 | 4015 ft | 228 kts | 129° |
| 2026-04-28 14:36 | 39.12279 | 23.60979 | 4006 ft | 224 kts | 98° |
| 2026-04-28 14:37 | 39.12237 | 23.62963 | 4018 ft | 223 kts | 84° |
| 2026-04-28 14:37 | 39.12327 | 23.64964 | 4013 ft | 223 kts | 84° |
| 2026-04-28 14:37 | 39.12425 | 23.66966 | 4006 ft | 223 kts | 84° |
| 2026-04-28 14:37 | 39.12524 | 23.68968 | 4009 ft | 224 kts | 84° |
| 2026-04-28 14:38 | 39.12696 | 23.70952 | 4007 ft | 222 kts | 70° |
| 2026-04-28 14:38 | 39.13466 | 23.72624 | 4010 ft | 218 kts | 43° |
| 2026-04-28 14:38 | 39.14760 | 23.73578 | 4016 ft | 216 kts | 13° |
| 2026-04-28 14:38 | 39.16230 | 23.73603 | 4014 ft | 217 kts | 345° |
| 2026-04-28 14:39 | 39.17550 | 23.72681 | 4022 ft | 220 kts | 316° |
| 2026-04-28 14:39 | 39.18347 | 23.71010 | 4022 ft | 223 kts | 285° |
| 2026-04-28 14:39 | 39.18442 | 23.69012 | 4011 ft | 226 kts | 268° |
| 2026-04-28 14:39 | 39.18348 | 23.66993 | 4033 ft | 225 kts | 268° |
| 2026-04-28 14:40 | 39.18244 | 23.64975 | 4016 ft | 226 kts | 268° |
| 2026-04-28 14:40 | 39.18174 | 23.63638 | 4012 ft | 226 kts | 268° |
| 2026-04-28 14:40 | 39.17986 | 23.60946 | 4004 ft | 227 kts | 257° |
| 2026-04-28 14:40 | 39.17235 | 23.59181 | 4005 ft | 229 kts | 225° |
| 2026-04-28 14:41 | 39.15860 | 23.58165 | 4008 ft | 231 kts | 193° |
| 2026-04-28 14:41 | 39.14272 | 23.58231 | 4004 ft | 230 kts | 160° |
| 2026-04-28 14:41 | 39.12955 | 23.59342 | 4009 ft | 228 kts | 128° |
| 2026-04-28 14:41 | 39.12288 | 23.61140 | 4014 ft | 223 kts | 95° |
| 2026-04-28 14:42 | 39.12503 | 23.63072 | 4011 ft | 219 kts | 61° |
| 2026-04-28 14:42 | 39.13511 | 23.64451 | 4013 ft | 216 kts | 27° |
| 2026-04-28 14:42 | 39.14957 | 23.64830 | 4001 ft | 215 kts | 352° |
| 2026-04-28 14:42 | 39.16276 | 23.64080 | 4004 ft | 203 kts | 319° |
| 2026-04-28 14:43 | 39.17250 | 23.62813 | 4008 ft | 197 kts | 322° |
| 2026-04-28 14:43 | 39.18406 | 23.61922 | 4008 ft | 193 kts | 340° |
| 2026-04-28 14:43 | 39.19708 | 23.61553 | 4018 ft | 192 kts | 358° |
| 2026-04-28 14:43 | 39.21036 | 23.61533 | 4027 ft | 191 kts | 359° |
| 2026-04-28 14:44 | 39.22365 | 23.61506 | 4015 ft | 191 kts | 359° |
| 2026-04-28 14:44 | 39.23693 | 23.61475 | 4010 ft | 191 kts | 359° |
| 2026-04-28 14:44 | 39.25021 | 23.61444 | 3925 ft | 192 kts | 359° |
| 2026-04-28 14:44 | 39.26351 | 23.61412 | 3632 ft | 189 kts | 359° |
| 2026-04-28 14:45 | 39.27651 | 23.61383 | 3370 ft | 185 kts | 359° |
| 2026-04-28 14:45 | 39.28919 | 23.61354 | 3127 ft | 180 kts | 359° |
| 2026-04-28 14:45 | 39.30155 | 23.61313 | 2901 ft | 175 kts | 354° |
| 2026-04-28 14:45 | 39.31215 | 23.60707 | 2767 ft | 166 kts | 318° |
| 2026-04-28 14:46 | 39.31856 | 23.59493 | 2645 ft | 165 kts | 291° |
| 2026-04-28 14:46 | 39.31987 | 23.58036 | 2529 ft | 165 kts | 263° |
| 2026-04-28 14:46 | 39.31572 | 23.56654 | 2387 ft | 168 kts | 235° |
| 2026-04-28 14:46 | 39.30680 | 23.55699 | 2236 ft | 169 kts | 204° |
| 2026-04-28 14:47 | 39.29575 | 23.55205 | 2103 ft | 167 kts | 198° |
| 2026-04-28 14:47 | 39.28507 | 23.54746 | 1963 ft | 158 kts | 198° |
| 2026-04-28 14:47 | 39.27464 | 23.54355 | 1827 ft | 154 kts | 192° |
| 2026-04-28 14:47 | 39.26421 | 23.54070 | 1714 ft | 152 kts | 191° |
| 2026-04-28 14:48 | 39.25389 | 23.53756 | 1544 ft | 152 kts | 196° |
| 2026-04-28 14:48 | 39.24399 | 23.53325 | 1346 ft | 152 kts | 198° |
| 2026-04-28 14:48 | 39.23406 | 23.52880 | 1108 ft | 151 kts | 198° |
| 2026-04-28 14:48 | 39.22416 | 23.52458 | 911 ft | 149 kts | 195° |
| 2026-04-28 14:49 | 39.21437 | 23.52045 | 725 ft | 147 kts | 197° |
| 2026-04-28 14:49 | 39.20478 | 23.51595 | 558 ft | 146 kts | 197° |
| 2026-04-28 14:49 | 39.19530 | 23.51160 | 329 ft | 143 kts | 197° |
| 2026-04-28 14:49 | 39.18579 | 23.50748 | 101 ft | 144 kts | 196° |
| 2026-04-28 14:50 | 39.17689 | 23.50360 | 41 ft | 110 kts | 199° |
| 2026-04-28 14:50 | 39.17255 | 23.50165 | 29 ft | 33 kts | 199° |
| 2026-04-28 14:50 | 39.17111 | 23.50099 | 19 ft | 16 kts | 198° |
| 2026-04-28 14:50 | 39.17021 | 23.50083 | 12 ft | 9 kts | 227° |
| 2026-04-28 14:51 | 39.17032 | 23.50057 | 12 ft | 3 kts | 349° |
| 2026-04-28 14:51 | 39.17044 | 23.50064 | 13 ft | 2 kts | 22° |
| 2026-04-28 14:51 | 39.17058 | 23.50071 | 15 ft | 2 kts | 22° |
| 2026-04-28 14:51 | 39.17090 | 23.50088 | 18 ft | 9 kts | 23° |
| 2026-04-28 14:52 | 39.17182 | 23.50133 | 22 ft | 19 kts | 19° |
| 2026-04-28 14:52 | 39.17339 | 23.50205 | 32 ft | 28 kts | 18° |
| 2026-04-28 14:52 | 39.17546 | 23.50293 | 40 ft | 33 kts | 19° |
| 2026-04-28 14:52 | 39.17684 | 23.50333 | 39 ft | 7 kts | 332° |
| 2026-04-28 14:53 | 39.17715 | 23.50282 | 38 ft | 7 kts | 308° |
| 2026-04-28 14:53 | 39.17755 | 23.50269 | 39 ft | 5 kts | 13° |
| 2026-04-28 14:53 | 39.17786 | 23.50282 | 39 ft | 5 kts | 20° |
| 2026-04-28 14:53 | 39.17816 | 23.50279 | 38 ft | 4 kts | 320° |
| 2026-04-28 14:54 | 39.17826 | 23.50250 | 39 ft | 5 kts | 288° |
| 2026-04-28 14:54 | 39.17837 | 23.50208 | 39 ft | 4 kts | 289° |
| 2026-04-28 14:54 | 39.17838 | 23.50204 | 39 ft | 0 kts | 289° |